sensor_id;sensor_type;location;lat;lon;timestamp;temperature;humidity
64396;DHT22;50717;53.360;6.290;2023-05-20T00:01:12;11.30;99.90
64396;DHT22;50717;53.360;6.290;2023-05-20T00:03:38;11.50;99.90
64396;DHT22;50717;53.360;6.290;2023-05-20T00:06:04;11.00;99.90
64396;DHT22;50717;53.360;6.290;2023-05-20T00:08:29;11.60;99.90
64396;DHT22;50717;53.360;6.290;2023-05-20T00:10:55;10.90;99.90
64396;DHT22;50717;53.360;6.290;2023-05-20T00:13:21;11.50;99.90
64396;DHT22;50717;53.360;6.290;2023-05-20T00:15:48;10.80;99.90
64396;DHT22;50717;53.360;6.290;2023-05-20T00:18:14;11.30;99.90
64396;DHT22;50717;53.360;6.290;2023-05-20T00:20:40;11.70;99.90
64396;DHT22;50717;53.360;6.290;2023-05-20T00:23:05;11.80;99.90
64396;DHT22;50717;53.360;6.290;2023-05-20T00:25:31;12.00;99.90
64396;DHT22;50717;53.360;6.290;2023-05-20T00:27:57;11.00;99.90
64396;DHT22;50717;53.360;6.290;2023-05-20T00:30:22;11.20;99.90
64396;DHT22;50717;53.360;6.290;2023-05-20T00:32:48;11.00;99.90
64396;DHT22;50717;53.360;6.290;2023-05-20T00:35:14;11.10;99.90
64396;DHT22;50717;53.360;6.290;2023-05-20T00:37:40;11.40;99.90
64396;DHT22;50717;53.360;6.290;2023-05-20T00:40:06;11.10;99.90
64396;DHT22;50717;53.360;6.290;2023-05-20T00:42:32;11.40;99.90
64396;DHT22;50717;53.360;6.290;2023-05-20T00:44:59;11.70;99.90
64396;DHT22;50717;53.360;6.290;2023-05-20T00:47:28;10.70;99.90
64396;DHT22;50717;53.360;6.290;2023-05-20T00:49:55;11.50;99.90
64396;DHT22;50717;53.360;6.290;2023-05-20T00:52:21;10.80;99.90
64396;DHT22;50717;53.360;6.290;2023-05-20T00:54:47;11.60;99.90
64396;DHT22;50717;53.360;6.290;2023-05-20T00:57:14;11.80;99.90
64396;DHT22;50717;53.360;6.290;2023-05-20T00:59:41;11.60;99.90
64396;DHT22;50717;53.360;6.290;2023-05-20T01:02:07;11.80;99.90
64396;DHT22;50717;53.360;6.290;2023-05-20T01:04:32;11.60;99.90
64396;DHT22;50717;53.360;6.290;2023-05-20T01:07:00;11.60;99.90
64396;DHT22;50717;53.360;6.290;2023-05-20T01:09:27;11.50;99.90
64396;DHT22;50717;53.360;6.290;2023-05-20T01:12:04;10.90;99.90
64396;DHT22;50717;53.360;6.290;2023-05-20T01:14:36;11.60;99.90
64396;DHT22;50717;53.360;6.290;2023-05-20T01:17:05;11.50;99.90
64396;DHT22;50717;53.360;6.290;2023-05-20T01:19:42;10.80;99.90
64396;DHT22;50717;53.360;6.290;2023-05-20T01:22:10;11.40;99.90
64396;DHT22;50717;53.360;6.290;2023-05-20T01:24:46;11.40;99.90
64396;DHT22;50717;53.360;6.290;2023-05-20T01:27:19;11.30;99.90
64396;DHT22;50717;53.360;6.290;2023-05-20T01:29:45;11.50;99.90
64396;DHT22;50717;53.360;6.290;2023-05-20T01:32:29;11.00;99.90
64396;DHT22;50717;53.360;6.290;2023-05-20T01:34:57;10.30;99.90
64396;DHT22;50717;53.360;6.290;2023-05-20T01:37:23;11.50;99.90
64396;DHT22;50717;53.360;6.290;2023-05-20T01:39:51;11.00;99.90
64396;DHT22;50717;53.360;6.290;2023-05-20T01:42:17;11.20;99.90
64396;DHT22;50717;53.360;6.290;2023-05-20T01:44:43;11.70;99.90
64396;DHT22;50717;53.360;6.290;2023-05-20T01:47:09;10.80;99.90
64396;DHT22;50717;53.360;6.290;2023-05-20T01:49:35;11.20;99.90
64396;DHT22;50717;53.360;6.290;2023-05-20T01:52:01;11.10;99.90
64396;DHT22;50717;53.360;6.290;2023-05-20T01:54:27;11.50;99.90
64396;DHT22;50717;53.360;6.290;2023-05-20T01:56:52;10.70;99.90
64396;DHT22;50717;53.360;6.290;2023-05-20T01:59:18;10.40;99.90
64396;DHT22;50717;53.360;6.290;2023-05-20T02:01:44;10.40;99.90
64396;DHT22;50717;53.360;6.290;2023-05-20T02:04:10;11.50;99.90
64396;DHT22;50717;53.360;6.290;2023-05-20T02:06:36;10.60;99.90
64396;DHT22;50717;53.360;6.290;2023-05-20T02:09:02;10.50;99.90
64396;DHT22;50717;53.360;6.290;2023-05-20T02:11:27;10.30;99.90
64396;DHT22;50717;53.360;6.290;2023-05-20T02:13:53;11.50;99.90
64396;DHT22;50717;53.360;6.290;2023-05-20T02:16:19;10.30;99.90
64396;DHT22;50717;53.360;6.290;2023-05-20T02:18:44;11.20;99.90
64396;DHT22;50717;53.360;6.290;2023-05-20T02:21:10;10.40;99.90
64396;DHT22;50717;53.360;6.290;2023-05-20T02:23:36;10.30;99.90
64396;DHT22;50717;53.360;6.290;2023-05-20T02:26:02;10.80;99.90
64396;DHT22;50717;53.360;6.290;2023-05-20T02:28:27;10.40;99.90
64396;DHT22;50717;53.360;6.290;2023-05-20T02:30:53;11.10;99.90
64396;DHT22;50717;53.360;6.290;2023-05-20T02:33:19;11.20;99.90
64396;DHT22;50717;53.360;6.290;2023-05-20T02:35:45;10.50;99.90
64396;DHT22;50717;53.360;6.290;2023-05-20T02:38:11;10.90;99.90
64396;DHT22;50717;53.360;6.290;2023-05-20T02:40:37;10.10;99.90
64396;DHT22;50717;53.360;6.290;2023-05-20T02:43:03;10.20;99.90
64396;DHT22;50717;53.360;6.290;2023-05-20T02:45:29;11.20;99.90
64396;DHT22;50717;53.360;6.290;2023-05-20T02:47:55;10.20;99.90
64396;DHT22;50717;53.360;6.290;2023-05-20T02:50:21;10.90;99.90
64396;DHT22;50717;53.360;6.290;2023-05-20T02:52:46;11.30;99.90
64396;DHT22;50717;53.360;6.290;2023-05-20T02:55:12;11.30;99.90
64396;DHT22;50717;53.360;6.290;2023-05-20T02:57:38;11.30;99.90
64396;DHT22;50717;53.360;6.290;2023-05-20T03:00:05;10.20;99.90
64396;DHT22;50717;53.360;6.290;2023-05-20T03:02:32;10.40;99.90
64396;DHT22;50717;53.360;6.290;2023-05-20T03:04:58;11.10;99.90
64396;DHT22;50717;53.360;6.290;2023-05-20T03:07:24;10.70;99.90
64396;DHT22;50717;53.360;6.290;2023-05-20T03:09:49;11.40;99.90
64396;DHT22;50717;53.360;6.290;2023-05-20T03:12:15;11.10;99.90
64396;DHT22;50717;53.360;6.290;2023-05-20T03:14:41;10.20;99.90
64396;DHT22;50717;53.360;6.290;2023-05-20T03:17:08;10.90;99.90
64396;DHT22;50717;53.360;6.290;2023-05-20T03:19:34;10.90;99.90
64396;DHT22;50717;53.360;6.290;2023-05-20T03:22:00;10.90;99.90
64396;DHT22;50717;53.360;6.290;2023-05-20T03:24:26;10.90;99.90
64396;DHT22;50717;53.360;6.290;2023-05-20T03:26:52;10.40;99.90
64396;DHT22;50717;53.360;6.290;2023-05-20T03:29:17;10.40;99.90
64396;DHT22;50717;53.360;6.290;2023-05-20T03:31:43;10.60;99.90
64396;DHT22;50717;53.360;6.290;2023-05-20T03:34:09;10.60;99.90
64396;DHT22;50717;53.360;6.290;2023-05-20T03:36:35;10.80;99.90
64396;DHT22;50717;53.360;6.290;2023-05-20T03:39:00;10.50;99.90
64396;DHT22;50717;53.360;6.290;2023-05-20T03:41:27;10.20;99.90
64396;DHT22;50717;53.360;6.290;2023-05-20T03:43:52;10.10;99.90
64396;DHT22;50717;53.360;6.290;2023-05-20T03:46:18;9.90;99.90
64396;DHT22;50717;53.360;6.290;2023-05-20T03:48:44;10.50;99.90
64396;DHT22;50717;53.360;6.290;2023-05-20T03:51:09;10.30;99.90
64396;DHT22;50717;53.360;6.290;2023-05-20T03:53:35;10.20;99.90
64396;DHT22;50717;53.360;6.290;2023-05-20T03:56:01;10.20;99.90
64396;DHT22;50717;53.360;6.290;2023-05-20T03:58:26;10.00;99.90
64396;DHT22;50717;53.360;6.290;2023-05-20T04:00:54;10.00;99.90
64396;DHT22;50717;53.360;6.290;2023-05-20T04:03:20;10.30;99.90
64396;DHT22;50717;53.360;6.290;2023-05-20T04:05:47;9.80;99.90
64396;DHT22;50717;53.360;6.290;2023-05-20T04:08:13;10.40;99.90
64396;DHT22;50717;53.360;6.290;2023-05-20T04:10:41;10.20;99.90
64396;DHT22;50717;53.360;6.290;2023-05-20T04:13:08;10.10;99.90
64396;DHT22;50717;53.360;6.290;2023-05-20T04:15:37;10.30;99.90
64396;DHT22;50717;53.360;6.290;2023-05-20T04:18:03;10.10;99.90
64396;DHT22;50717;53.360;6.290;2023-05-20T04:20:32;10.00;99.90
64396;DHT22;50717;53.360;6.290;2023-05-20T04:22:58;10.00;99.90
64396;DHT22;50717;53.360;6.290;2023-05-20T04:25:24;10.30;99.90
64396;DHT22;50717;53.360;6.290;2023-05-20T04:27:50;10.00;99.90
64396;DHT22;50717;53.360;6.290;2023-05-20T04:30:18;9.60;99.90
64396;DHT22;50717;53.360;6.290;2023-05-20T04:32:46;10.00;99.90
64396;DHT22;50717;53.360;6.290;2023-05-20T04:35:13;10.20;99.90
64396;DHT22;50717;53.360;6.290;2023-05-20T04:37:38;10.00;99.90
64396;DHT22;50717;53.360;6.290;2023-05-20T04:40:05;9.90;99.90
64396;DHT22;50717;53.360;6.290;2023-05-20T04:42:34;10.20;99.90
64396;DHT22;50717;53.360;6.290;2023-05-20T04:45:00;9.90;99.90
64396;DHT22;50717;53.360;6.290;2023-05-20T04:47:30;10.50;99.90
64396;DHT22;50717;53.360;6.290;2023-05-20T04:49:56;9.90;99.90
64396;DHT22;50717;53.360;6.290;2023-05-20T04:52:25;10.00;99.90
64396;DHT22;50717;53.360;6.290;2023-05-20T04:54:51;10.40;99.90
64396;DHT22;50717;53.360;6.290;2023-05-20T04:57:17;10.70;99.90
64396;DHT22;50717;53.360;6.290;2023-05-20T04:59:48;10.60;99.90
64396;DHT22;50717;53.360;6.290;2023-05-20T05:02:14;11.00;99.90
64396;DHT22;50717;53.360;6.290;2023-05-20T05:04:40;10.90;99.90
64396;DHT22;50717;53.360;6.290;2023-05-20T05:07:05;10.70;99.90
64396;DHT22;50717;53.360;6.290;2023-05-20T05:09:31;10.70;99.90
64396;DHT22;50717;53.360;6.290;2023-05-20T05:11:57;11.00;99.90
64396;DHT22;50717;53.360;6.290;2023-05-20T05:14:22;10.90;99.90
64396;DHT22;50717;53.360;6.290;2023-05-20T05:16:48;11.20;99.90
64396;DHT22;50717;53.360;6.290;2023-05-20T05:19:14;11.50;99.90
64396;DHT22;50717;53.360;6.290;2023-05-20T05:21:40;12.00;99.90
64396;DHT22;50717;53.360;6.290;2023-05-20T05:24:06;12.20;99.90
64396;DHT22;50717;53.360;6.290;2023-05-20T05:26:32;12.60;99.90
64396;DHT22;50717;53.360;6.290;2023-05-20T05:28:58;12.50;99.90
64396;DHT22;50717;53.360;6.290;2023-05-20T05:31:24;12.60;99.90
64396;DHT22;50717;53.360;6.290;2023-05-20T05:33:49;12.90;99.90
64396;DHT22;50717;53.360;6.290;2023-05-20T05:36:15;13.00;99.90
64396;DHT22;50717;53.360;6.290;2023-05-20T05:38:41;13.00;99.90
64396;DHT22;50717;53.360;6.290;2023-05-20T05:41:07;12.80;99.90
64396;DHT22;50717;53.360;6.290;2023-05-20T05:43:34;12.80;99.90
64396;DHT22;50717;53.360;6.290;2023-05-20T05:46:00;12.90;99.90
64396;DHT22;50717;53.360;6.290;2023-05-20T05:48:25;12.70;99.90
64396;DHT22;50717;53.360;6.290;2023-05-20T05:50:51;12.90;99.90
64396;DHT22;50717;53.360;6.290;2023-05-20T05:53:17;12.90;99.90
64396;DHT22;50717;53.360;6.290;2023-05-20T05:55:45;12.70;99.90
64396;DHT22;50717;53.360;6.290;2023-05-20T05:58:11;12.80;99.90
64396;DHT22;50717;53.360;6.290;2023-05-20T06:00:37;12.90;99.90
64396;DHT22;50717;53.360;6.290;2023-05-20T06:03:03;12.80;99.90
64396;DHT22;50717;53.360;6.290;2023-05-20T06:05:30;13.20;99.90
64396;DHT22;50717;53.360;6.290;2023-05-20T06:07:56;12.90;99.90
64396;DHT22;50717;53.360;6.290;2023-05-20T06:10:22;12.90;99.90
64396;DHT22;50717;53.360;6.290;2023-05-20T06:12:48;12.80;99.90
64396;DHT22;50717;53.360;6.290;2023-05-20T06:15:17;13.20;99.90
64396;DHT22;50717;53.360;6.290;2023-05-20T06:17:42;13.00;99.90
64396;DHT22;50717;53.360;6.290;2023-05-20T06:20:08;13.30;99.90
64396;DHT22;50717;53.360;6.290;2023-05-20T06:22:34;13.00;99.90
64396;DHT22;50717;53.360;6.290;2023-05-20T06:25:00;13.40;99.90
64396;DHT22;50717;53.360;6.290;2023-05-20T06:27:27;13.20;99.90
64396;DHT22;50717;53.360;6.290;2023-05-20T06:29:52;13.40;99.90
64396;DHT22;50717;53.360;6.290;2023-05-20T06:32:18;13.20;99.90
64396;DHT22;50717;53.360;6.290;2023-05-20T06:34:44;13.60;99.90
64396;DHT22;50717;53.360;6.290;2023-05-20T06:37:10;13.30;99.90
64396;DHT22;50717;53.360;6.290;2023-05-20T06:39:36;13.70;99.90
64396;DHT22;50717;53.360;6.290;2023-05-20T06:42:02;13.80;99.90
64396;DHT22;50717;53.360;6.290;2023-05-20T06:44:27;13.90;99.90
64396;DHT22;50717;53.360;6.290;2023-05-20T06:46:53;13.50;99.90
64396;DHT22;50717;53.360;6.290;2023-05-20T06:49:19;13.90;99.90
64396;DHT22;50717;53.360;6.290;2023-05-20T06:51:45;14.10;99.90
64396;DHT22;50717;53.360;6.290;2023-05-20T06:54:10;14.00;99.90
64396;DHT22;50717;53.360;6.290;2023-05-20T06:56:36;13.80;99.90
64396;DHT22;50717;53.360;6.290;2023-05-20T06:59:02;13.90;99.90
64396;DHT22;50717;53.360;6.290;2023-05-20T07:01:28;13.60;99.90
64396;DHT22;50717;53.360;6.290;2023-05-20T07:03:53;13.90;99.90
64396;DHT22;50717;53.360;6.290;2023-05-20T07:06:19;14.40;99.90
64396;DHT22;50717;53.360;6.290;2023-05-20T07:08:45;14.20;99.90
64396;DHT22;50717;53.360;6.290;2023-05-20T07:11:10;13.70;99.90
64396;DHT22;50717;53.360;6.290;2023-05-20T07:13:36;14.50;99.90
64396;DHT22;50717;53.360;6.290;2023-05-20T07:16:02;14.40;99.90
64396;DHT22;50717;53.360;6.290;2023-05-20T07:18:28;14.30;99.90
64396;DHT22;50717;53.360;6.290;2023-05-20T07:20:54;14.30;99.90
64396;DHT22;50717;53.360;6.290;2023-05-20T07:23:21;14.30;99.90
64396;DHT22;50717;53.360;6.290;2023-05-20T07:25:47;14.00;99.90
64396;DHT22;50717;53.360;6.290;2023-05-20T07:28:15;14.10;99.90
64396;DHT22;50717;53.360;6.290;2023-05-20T07:30:42;14.30;99.90
64396;DHT22;50717;53.360;6.290;2023-05-20T07:33:17;14.60;99.90
64396;DHT22;50717;53.360;6.290;2023-05-20T07:35:43;14.70;99.90
64396;DHT22;50717;53.360;6.290;2023-05-20T07:38:10;14.80;99.90
64396;DHT22;50717;53.360;6.290;2023-05-20T07:40:37;14.60;99.90
64396;DHT22;50717;53.360;6.290;2023-05-20T07:43:06;14.70;99.90
64396;DHT22;50717;53.360;6.290;2023-05-20T07:45:34;15.20;99.90
64396;DHT22;50717;53.360;6.290;2023-05-20T07:48:00;14.90;99.90
64396;DHT22;50717;53.360;6.290;2023-05-20T07:50:25;14.70;99.90
64396;DHT22;50717;53.360;6.290;2023-05-20T07:52:51;14.80;99.90
64396;DHT22;50717;53.360;6.290;2023-05-20T07:55:17;15.10;99.90
64396;DHT22;50717;53.360;6.290;2023-05-20T07:57:43;14.80;99.90
64396;DHT22;50717;53.360;6.290;2023-05-20T08:00:09;14.70;99.90
64396;DHT22;50717;53.360;6.290;2023-05-20T08:02:37;14.90;99.90
64396;DHT22;50717;53.360;6.290;2023-05-20T08:05:03;14.80;99.90
64396;DHT22;50717;53.360;6.290;2023-05-20T08:07:29;15.10;99.90
64396;DHT22;50717;53.360;6.290;2023-05-20T08:09:55;15.50;99.90
64396;DHT22;50717;53.360;6.290;2023-05-20T08:12:21;15.70;99.90
64396;DHT22;50717;53.360;6.290;2023-05-20T08:14:49;15.30;99.90
64396;DHT22;50717;53.360;6.290;2023-05-20T08:17:14;15.20;99.90
64396;DHT22;50717;53.360;6.290;2023-05-20T08:19:40;15.30;99.90
64396;DHT22;50717;53.360;6.290;2023-05-20T08:22:06;15.00;99.90
64396;DHT22;50717;53.360;6.290;2023-05-20T08:24:33;15.50;99.90
64396;DHT22;50717;53.360;6.290;2023-05-20T08:26:58;15.40;99.90
64396;DHT22;50717;53.360;6.290;2023-05-20T08:29:25;15.60;99.90
64396;DHT22;50717;53.360;6.290;2023-05-20T08:31:51;15.50;99.90
64396;DHT22;50717;53.360;6.290;2023-05-20T08:34:16;15.40;99.90
64396;DHT22;50717;53.360;6.290;2023-05-20T08:36:42;15.90;99.90
64396;DHT22;50717;53.360;6.290;2023-05-20T08:39:09;16.00;99.90
64396;DHT22;50717;53.360;6.290;2023-05-20T08:41:37;15.70;99.90
64396;DHT22;50717;53.360;6.290;2023-05-20T08:44:04;16.00;99.90
64396;DHT22;50717;53.360;6.290;2023-05-20T08:46:31;16.00;99.90
64396;DHT22;50717;53.360;6.290;2023-05-20T08:48:58;15.70;99.90
64396;DHT22;50717;53.360;6.290;2023-05-20T08:51:25;15.90;99.90
64396;DHT22;50717;53.360;6.290;2023-05-20T08:53:51;15.90;99.90
64396;DHT22;50717;53.360;6.290;2023-05-20T08:56:17;16.00;99.90
64396;DHT22;50717;53.360;6.290;2023-05-20T08:58:43;15.50;99.90
64396;DHT22;50717;53.360;6.290;2023-05-20T09:01:11;16.20;99.90
64396;DHT22;50717;53.360;6.290;2023-05-20T09:03:37;15.60;99.90
64396;DHT22;50717;53.360;6.290;2023-05-20T09:06:03;15.80;99.90
64396;DHT22;50717;53.360;6.290;2023-05-20T09:08:29;16.10;99.90
64396;DHT22;50717;53.360;6.290;2023-05-20T09:10:55;15.80;99.90
64396;DHT22;50717;53.360;6.290;2023-05-20T09:13:22;16.00;99.90
64396;DHT22;50717;53.360;6.290;2023-05-20T09:15:48;15.90;99.90
64396;DHT22;50717;53.360;6.290;2023-05-20T09:18:13;16.00;99.90
64396;DHT22;50717;53.360;6.290;2023-05-20T09:20:39;16.50;99.90
64396;DHT22;50717;53.360;6.290;2023-05-20T09:23:07;16.20;99.90
64396;DHT22;50717;53.360;6.290;2023-05-20T09:25:34;16.20;99.90
64396;DHT22;50717;53.360;6.290;2023-05-20T09:28:01;15.90;99.90
64396;DHT22;50717;53.360;6.290;2023-05-20T09:30:27;16.50;99.90
64396;DHT22;50717;53.360;6.290;2023-05-20T09:32:53;16.40;99.90
64396;DHT22;50717;53.360;6.290;2023-05-20T09:35:20;16.50;99.90
64396;DHT22;50717;53.360;6.290;2023-05-20T09:37:47;16.20;99.90
64396;DHT22;50717;53.360;6.290;2023-05-20T09:40:14;16.40;99.90
64396;DHT22;50717;53.360;6.290;2023-05-20T09:43:00;16.90;99.90
64396;DHT22;50717;53.360;6.290;2023-05-20T09:45:27;16.60;99.90
64396;DHT22;50717;53.360;6.290;2023-05-20T09:47:53;16.40;99.90
64396;DHT22;50717;53.360;6.290;2023-05-20T09:50:21;16.20;99.90
64396;DHT22;50717;53.360;6.290;2023-05-20T09:52:49;16.50;99.90
64396;DHT22;50717;53.360;6.290;2023-05-20T09:55:17;16.50;99.90
64396;DHT22;50717;53.360;6.290;2023-05-20T09:57:44;16.30;99.90
64396;DHT22;50717;53.360;6.290;2023-05-20T10:00:11;16.50;99.90
64396;DHT22;50717;53.360;6.290;2023-05-20T10:02:41;16.30;99.90
64396;DHT22;50717;53.360;6.290;2023-05-20T10:05:20;16.60;99.90
64396;DHT22;50717;53.360;6.290;2023-05-20T10:15:54;16.80;99.90
64396;DHT22;50717;53.360;6.290;2023-05-20T10:20:48;16.60;99.90
64396;DHT22;50717;53.360;6.290;2023-05-20T10:23:26;16.90;99.90
64396;DHT22;50717;53.360;6.290;2023-05-20T10:25:54;16.80;99.90
64396;DHT22;50717;53.360;6.290;2023-05-20T10:28:32;16.90;99.90
64396;DHT22;50717;53.360;6.290;2023-05-20T10:31:00;16.60;99.90
64396;DHT22;50717;53.360;6.290;2023-05-20T10:33:26;17.10;99.90
64396;DHT22;50717;53.360;6.290;2023-05-20T10:35:58;17.20;99.90
64396;DHT22;50717;53.360;6.290;2023-05-20T10:38:25;17.20;99.90
64396;DHT22;50717;53.360;6.290;2023-05-20T10:40:51;17.20;99.90
64396;DHT22;50717;53.360;6.290;2023-05-20T10:43:25;17.30;99.90
64396;DHT22;50717;53.360;6.290;2023-05-20T10:45:56;17.00;99.90
64396;DHT22;50717;53.360;6.290;2023-05-20T10:48:32;17.10;99.90
64396;DHT22;50717;53.360;6.290;2023-05-20T10:51:01;17.30;99.90
64396;DHT22;50717;53.360;6.290;2023-05-20T10:53:38;17.50;99.90
64396;DHT22;50717;53.360;6.290;2023-05-20T10:56:04;17.50;99.90
64396;DHT22;50717;53.360;6.290;2023-05-20T10:58:38;17.30;99.90
64396;DHT22;50717;53.360;6.290;2023-05-20T11:01:03;17.30;99.90
64396;DHT22;50717;53.360;6.290;2023-05-20T11:03:29;17.30;99.90
64396;DHT22;50717;53.360;6.290;2023-05-20T11:05:56;17.50;99.90
64396;DHT22;50717;53.360;6.290;2023-05-20T11:08:21;17.60;99.90
64396;DHT22;50717;53.360;6.290;2023-05-20T11:10:47;17.20;99.90
64396;DHT22;50717;53.360;6.290;2023-05-20T11:13:13;16.90;99.90
64396;DHT22;50717;53.360;6.290;2023-05-20T11:15:39;16.60;99.90
64396;DHT22;50717;53.360;6.290;2023-05-20T11:18:06;16.80;99.90
64396;DHT22;50717;53.360;6.290;2023-05-20T11:20:32;17.10;99.90
64396;DHT22;50717;53.360;6.290;2023-05-20T11:23:01;17.00;99.90
64396;DHT22;50717;53.360;6.290;2023-05-20T11:25:28;17.10;99.90
64396;DHT22;50717;53.360;6.290;2023-05-20T11:27:54;17.40;99.90
64396;DHT22;50717;53.360;6.290;2023-05-20T11:30:19;17.40;99.90
64396;DHT22;50717;53.360;6.290;2023-05-20T11:32:58;17.40;99.90
64396;DHT22;50717;53.360;6.290;2023-05-20T11:35:24;17.40;99.90
64396;DHT22;50717;53.360;6.290;2023-05-20T11:38:02;17.60;99.90
64396;DHT22;50717;53.360;6.290;2023-05-20T11:40:29;18.00;99.90
64396;DHT22;50717;53.360;6.290;2023-05-20T11:42:56;17.40;99.90
64396;DHT22;50717;53.360;6.290;2023-05-20T11:45:22;17.50;99.90
64396;DHT22;50717;53.360;6.290;2023-05-20T11:48:00;17.40;99.90
64396;DHT22;50717;53.360;6.290;2023-05-20T11:50:26;17.30;99.90
64396;DHT22;50717;53.360;6.290;2023-05-20T11:52:58;17.30;99.90
64396;DHT22;50717;53.360;6.290;2023-05-20T11:55:27;17.50;99.90
64396;DHT22;50717;53.360;6.290;2023-05-20T11:57:53;17.60;99.90
64396;DHT22;50717;53.360;6.290;2023-05-20T12:00:19;17.60;99.90
64396;DHT22;50717;53.360;6.290;2023-05-20T12:02:45;17.50;99.90
64396;DHT22;50717;53.360;6.290;2023-05-20T12:05:11;17.20;99.90
64396;DHT22;50717;53.360;6.290;2023-05-20T12:07:38;17.20;99.90
64396;DHT22;50717;53.360;6.290;2023-05-20T12:10:03;17.30;99.90
64396;DHT22;50717;53.360;6.290;2023-05-20T12:12:29;17.50;99.90
64396;DHT22;50717;53.360;6.290;2023-05-20T12:14:55;17.40;99.90
64396;DHT22;50717;53.360;6.290;2023-05-20T12:17:21;17.10;99.90
64396;DHT22;50717;53.360;6.290;2023-05-20T12:19:46;17.00;99.90
64396;DHT22;50717;53.360;6.290;2023-05-20T12:22:12;17.00;99.90
64396;DHT22;50717;53.360;6.290;2023-05-20T12:24:38;16.70;99.90
64396;DHT22;50717;53.360;6.290;2023-05-20T12:27:03;16.70;99.90
64396;DHT22;50717;53.360;6.290;2023-05-20T12:29:31;16.40;99.90
64396;DHT22;50717;53.360;6.290;2023-05-20T12:31:56;16.70;99.90
64396;DHT22;50717;53.360;6.290;2023-05-20T12:34:22;16.70;99.90
64396;DHT22;50717;53.360;6.290;2023-05-20T12:36:47;16.70;99.90
64396;DHT22;50717;53.360;6.290;2023-05-20T12:39:13;16.60;99.90
64396;DHT22;50717;53.360;6.290;2023-05-20T12:41:42;16.80;99.90
64396;DHT22;50717;53.360;6.290;2023-05-20T12:44:07;17.10;99.90
64396;DHT22;50717;53.360;6.290;2023-05-20T12:46:34;17.20;99.90
64396;DHT22;50717;53.360;6.290;2023-05-20T12:48:59;17.60;99.90
64396;DHT22;50717;53.360;6.290;2023-05-20T12:51:25;17.60;99.90
64396;DHT22;50717;53.360;6.290;2023-05-20T12:53:51;18.10;99.90
64396;DHT22;50717;53.360;6.290;2023-05-20T12:56:16;17.70;99.90
64396;DHT22;50717;53.360;6.290;2023-05-20T12:58:43;18.10;99.90
64396;DHT22;50717;53.360;6.290;2023-05-20T13:01:09;18.20;99.90
64396;DHT22;50717;53.360;6.290;2023-05-20T13:03:34;18.70;99.90
64396;DHT22;50717;53.360;6.290;2023-05-20T13:06:00;18.80;99.90
64396;DHT22;50717;53.360;6.290;2023-05-20T13:08:26;18.80;99.90
64396;DHT22;50717;53.360;6.290;2023-05-20T13:10:51;18.90;99.90
64396;DHT22;50717;53.360;6.290;2023-05-20T13:13:17;18.50;99.90
64396;DHT22;50717;53.360;6.290;2023-05-20T13:15:49;18.90;99.90
64396;DHT22;50717;53.360;6.290;2023-05-20T13:18:14;18.70;99.90
64396;DHT22;50717;53.360;6.290;2023-05-20T13:20:43;19.10;99.90
64396;DHT22;50717;53.360;6.290;2023-05-20T13:23:09;19.40;99.90
64396;DHT22;50717;53.360;6.290;2023-05-20T13:25:34;19.10;99.90
64396;DHT22;50717;53.360;6.290;2023-05-20T13:28:01;19.20;99.90
64396;DHT22;50717;53.360;6.290;2023-05-20T13:30:27;18.90;99.90
64396;DHT22;50717;53.360;6.290;2023-05-20T13:32:53;18.90;99.90
64396;DHT22;50717;53.360;6.290;2023-05-20T13:35:18;18.70;99.90
64396;DHT22;50717;53.360;6.290;2023-05-20T13:37:44;18.90;99.90
64396;DHT22;50717;53.360;6.290;2023-05-20T13:40:10;19.30;99.90
64396;DHT22;50717;53.360;6.290;2023-05-20T13:42:36;19.40;99.90
64396;DHT22;50717;53.360;6.290;2023-05-20T13:45:01;19.30;99.90
64396;DHT22;50717;53.360;6.290;2023-05-20T13:47:27;19.30;99.90
64396;DHT22;50717;53.360;6.290;2023-05-20T13:49:53;19.40;99.90
64396;DHT22;50717;53.360;6.290;2023-05-20T13:52:18;19.50;99.90
64396;DHT22;50717;53.360;6.290;2023-05-20T13:54:44;19.30;99.90
64396;DHT22;50717;53.360;6.290;2023-05-20T13:57:11;19.40;99.90
64396;DHT22;50717;53.360;6.290;2023-05-20T13:59:37;19.50;99.90
64396;DHT22;50717;53.360;6.290;2023-05-20T14:02:03;19.70;99.90
64396;DHT22;50717;53.360;6.290;2023-05-20T14:04:28;19.90;99.90
64396;DHT22;50717;53.360;6.290;2023-05-20T14:06:55;19.60;99.90
64396;DHT22;50717;53.360;6.290;2023-05-20T14:09:21;19.80;99.90
64396;DHT22;50717;53.360;6.290;2023-05-20T14:11:46;20.10;99.90
64396;DHT22;50717;53.360;6.290;2023-05-20T14:14:12;20.60;99.90
64396;DHT22;50717;53.360;6.290;2023-05-20T14:16:37;20.30;99.90
64396;DHT22;50717;53.360;6.290;2023-05-20T14:19:04;20.20;99.90
64396;DHT22;50717;53.360;6.290;2023-05-20T14:21:29;20.40;99.90
64396;DHT22;50717;53.360;6.290;2023-05-20T14:23:57;20.40;99.90
64396;DHT22;50717;53.360;6.290;2023-05-20T14:26:22;20.60;99.90
64396;DHT22;50717;53.360;6.290;2023-05-20T14:28:48;20.40;99.90
64396;DHT22;50717;53.360;6.290;2023-05-20T14:31:14;20.80;99.90
64396;DHT22;50717;53.360;6.290;2023-05-20T14:33:39;20.40;99.90
64396;DHT22;50717;53.360;6.290;2023-05-20T14:36:05;20.70;99.90
64396;DHT22;50717;53.360;6.290;2023-05-20T14:38:31;20.50;99.90
64396;DHT22;50717;53.360;6.290;2023-05-20T14:40:57;20.70;99.90
64396;DHT22;50717;53.360;6.290;2023-05-20T14:43:22;20.80;99.90
64396;DHT22;50717;53.360;6.290;2023-05-20T14:45:48;20.90;99.90
64396;DHT22;50717;53.360;6.290;2023-05-20T14:48:13;21.10;99.90
64396;DHT22;50717;53.360;6.290;2023-05-20T14:50:39;20.90;99.90
64396;DHT22;50717;53.360;6.290;2023-05-20T14:53:05;21.10;99.90
64396;DHT22;50717;53.360;6.290;2023-05-20T14:55:30;20.90;99.90
64396;DHT22;50717;53.360;6.290;2023-05-20T14:57:56;21.10;99.90
64396;DHT22;50717;53.360;6.290;2023-05-20T15:00:22;21.00;99.90
64396;DHT22;50717;53.360;6.290;2023-05-20T15:02:47;20.70;99.90
64396;DHT22;50717;53.360;6.290;2023-05-20T15:05:13;20.90;99.90
64396;DHT22;50717;53.360;6.290;2023-05-20T15:07:38;20.70;99.90
64396;DHT22;50717;53.360;6.290;2023-05-20T15:10:04;20.50;99.90
64396;DHT22;50717;53.360;6.290;2023-05-20T15:12:30;20.70;99.90
64396;DHT22;50717;53.360;6.290;2023-05-20T15:14:55;20.80;99.90
64396;DHT22;50717;53.360;6.290;2023-05-20T15:17:21;21.00;99.90
64396;DHT22;50717;53.360;6.290;2023-05-20T15:19:47;21.20;99.90
64396;DHT22;50717;53.360;6.290;2023-05-20T15:22:12;20.90;99.90
64396;DHT22;50717;53.360;6.290;2023-05-20T15:24:38;21.20;99.90
64396;DHT22;50717;53.360;6.290;2023-05-20T15:27:03;21.00;99.90
64396;DHT22;50717;53.360;6.290;2023-05-20T15:29:29;21.20;99.90
64396;DHT22;50717;53.360;6.290;2023-05-20T15:31:55;21.20;99.90
64396;DHT22;50717;53.360;6.290;2023-05-20T15:34:20;21.10;99.90
64396;DHT22;50717;53.360;6.290;2023-05-20T15:36:46;21.60;99.90